createdAt,value
2022-10-19T00:01:02.750Z,77.54
2022-10-19T00:03:29.598Z,77.59
2022-10-19T00:05:56.150Z,77.78
2022-10-19T00:08:22.554Z,77.80
2022-10-19T00:10:50.423Z,77.99
2022-10-19T00:13:16.959Z,78.17
2022-10-19T00:15:45.432Z,78.45
2022-10-19T00:18:11.983Z,78.71
2022-10-19T00:20:38.468Z,78.98
2022-10-19T00:23:05.247Z,79.30
2022-10-19T00:25:31.974Z,79.46
2022-10-19T00:27:58.518Z,79.58
2022-10-19T00:30:25.030Z,79.58
2022-10-19T00:32:51.488Z,79.81
2022-10-19T00:35:17.966Z,79.84
2022-10-19T00:37:44.343Z,79.99
2022-10-19T00:40:11.296Z,80.20
2022-10-19T00:42:37.702Z,80.08
2022-10-19T00:45:14.422Z,80.18
2022-10-19T00:47:42.667Z,80.37
2022-10-19T00:50:10.678Z,80.39
2022-10-19T00:52:38.344Z,80.55
2022-10-19T00:55:05.287Z,81.04
2022-10-19T00:57:32.593Z,81.52
2022-10-19T01:00:00.367Z,82.07
2022-10-19T01:02:26.996Z,82.53
2022-10-19T01:04:54.067Z,82.72
2022-10-19T01:07:21.143Z,83.08
2022-10-19T01:09:47.684Z,83.17
2022-10-19T01:12:28.853Z,83.19
2022-10-19T01:15:34.054Z,83.07
2022-10-19T01:18:19.989Z,83.17
2022-10-19T01:21:20.695Z,83.18
2022-10-19T01:23:47.091Z,83.15
2022-10-19T01:26:37.595Z,83.21
2022-10-19T01:29:41.735Z,83.06
2022-10-19T01:32:34.103Z,83.22
2022-10-19T01:35:09.298Z,83.08
2022-10-19T01:37:48.371Z,82.93
2022-10-19T01:40:50.488Z,82.96
2022-10-19T01:43:33.226Z,82.70
2022-10-19T01:46:11.409Z,82.75
2022-10-19T01:48:41.217Z,82.71
2022-10-19T01:51:17.813Z,82.72
2022-10-19T01:53:50.330Z,82.69
2022-10-19T01:56:19.880Z,82.74
2022-10-19T01:58:47.863Z,82.71
2022-10-19T02:01:19.347Z,82.76
2022-10-19T02:03:45.925Z,83.05
2022-10-19T02:06:13.899Z,83.11
2022-10-19T02:08:46.151Z,83.20
2022-10-19T02:11:12.690Z,83.20
2022-10-19T02:13:41.548Z,83.32
2022-10-19T02:16:12.245Z,83.41
2022-10-19T02:18:44.803Z,83.45
2022-10-19T02:21:11.522Z,83.57
2022-10-19T02:23:38.416Z,83.57
2022-10-19T02:26:05.545Z,83.78
2022-10-19T02:28:32.919Z,83.53
2022-10-19T02:31:00.405Z,83.77
2022-10-19T02:33:28.817Z,83.69
2022-10-19T02:35:56.366Z,83.81
2022-10-19T02:38:24.375Z,83.84
2022-10-19T02:41:07.991Z,83.95
2022-10-19T02:43:39.086Z,83.86
2022-10-19T02:46:22.998Z,83.99
2022-10-19T02:48:51.540Z,84.02
2022-10-19T02:51:34.011Z,84.00
2022-10-19T02:54:04.141Z,84.02
2022-10-19T02:56:32.485Z,83.97
2022-10-19T02:58:58.946Z,84.11
2022-10-19T03:01:25.637Z,84.03
2022-10-19T03:03:52.123Z,84.02
2022-10-19T03:06:19.133Z,84.00
2022-10-19T03:08:45.680Z,83.94
2022-10-19T03:11:12.081Z,83.85
2022-10-19T03:13:38.605Z,83.88
2022-10-19T03:16:10.317Z,83.90
2022-10-19T03:18:36.900Z,83.67
2022-10-19T03:21:09.191Z,83.68
2022-10-19T03:23:36.675Z,83.62
2022-10-19T03:26:03.555Z,83.61
2022-10-19T03:28:30.498Z,83.54
2022-10-19T03:30:57.304Z,83.57
2022-10-19T03:36:15.728Z,83.56
2022-10-19T03:38:42.515Z,83.61
2022-10-19T03:41:09.212Z,83.67
2022-10-19T03:43:35.759Z,83.58
2022-10-19T03:46:03.121Z,83.66
2022-10-19T03:48:29.670Z,83.70
2022-10-19T03:51:05.655Z,83.70
2022-10-19T03:53:35.433Z,83.87
2022-10-19T03:56:08.123Z,83.81
2022-10-19T03:58:36.811Z,83.90
2022-10-19T04:01:09.241Z,84.14
2022-10-19T04:06:19.621Z,84.23
2022-10-19T04:08:50.101Z,84.21
2022-10-19T04:11:18.869Z,84.53
2022-10-19T04:13:50.315Z,84.28
2022-10-19T04:16:17.486Z,84.36
2022-10-19T04:18:43.899Z,84.41
2022-10-19T04:21:22.209Z,84.40
2022-10-19T04:23:49.896Z,84.28
2022-10-19T04:26:16.394Z,84.41
2022-10-19T04:28:42.868Z,84.54
2022-10-19T04:31:11.705Z,84.41
2022-10-19T04:33:39.071Z,84.46
2022-10-19T04:36:07.989Z,84.49
2022-10-19T04:38:35.238Z,84.48
2022-10-19T04:41:07.241Z,84.45
2022-10-19T04:43:34.229Z,84.23
2022-10-19T04:46:05.895Z,84.07
2022-10-19T04:48:34.276Z,83.98
2022-10-19T04:51:00.829Z,83.91
2022-10-19T04:53:28.058Z,83.73
2022-10-19T04:55:54.541Z,83.70
2022-10-19T04:58:21.289Z,83.56
2022-10-19T05:00:48.065Z,83.54
2022-10-19T05:03:15.228Z,83.40
2022-10-19T05:05:41.805Z,83.55
2022-10-19T05:08:09.745Z,83.22
2022-10-19T05:10:37.590Z,83.03
2022-10-19T05:13:05.109Z,83.03
2022-10-19T05:15:32.262Z,82.67
2022-10-19T05:18:01.901Z,82.58
2022-10-19T05:20:28.454Z,82.57
2022-10-19T05:22:54.894Z,82.53
2022-10-19T05:25:21.430Z,82.08
2022-10-19T05:27:52.456Z,82.05
2022-10-19T05:30:21.787Z,82.13
2022-10-19T05:32:49.079Z,81.83
2022-10-19T05:35:18.688Z,81.99
2022-10-19T05:37:48.011Z,82.03
2022-10-19T05:40:14.443Z,81.53
2022-10-19T05:42:41.075Z,81.78
2022-10-19T05:45:07.749Z,81.51
2022-10-19T05:47:34.871Z,81.50
2022-10-19T05:50:01.644Z,81.56
2022-10-19T05:52:28.291Z,81.46
2022-10-19T05:54:55.671Z,81.20
2022-10-19T05:57:22.141Z,80.80
2022-10-19T05:59:48.568Z,80.81
2022-10-19T06:02:15.062Z,80.90
2022-10-19T06:04:41.440Z,80.88
2022-10-19T06:07:07.928Z,80.68
2022-10-19T06:09:36.459Z,80.99
2022-10-19T06:12:03.788Z,81.04
2022-10-19T06:14:30.208Z,81.16
2022-10-19T06:16:56.699Z,81.17
2022-10-19T06:19:23.109Z,81.00
2022-10-19T06:21:49.547Z,81.07
2022-10-19T06:24:15.973Z,81.11
2022-10-19T06:26:42.729Z,81.18
2022-10-19T06:29:09.826Z,81.22
2022-10-19T06:31:38.388Z,81.42
2022-10-19T06:34:05.359Z,81.58
2022-10-19T06:36:32.616Z,81.62
2022-10-19T06:39:02.094Z,81.51
2022-10-19T06:41:30.725Z,81.40
2022-10-19T06:43:57.713Z,81.29
2022-10-19T06:46:26.199Z,81.59
2022-10-19T06:49:04.604Z,81.87
2022-10-19T06:51:34.130Z,81.68
2022-10-19T06:54:00.771Z,81.70
2022-10-19T06:56:27.308Z,81.63
2022-10-19T06:58:54.774Z,81.61
2022-10-19T07:01:25.031Z,81.36
2022-10-19T07:03:52.673Z,81.24
2022-10-19T07:06:20.428Z,81.18
2022-10-19T07:08:46.969Z,81.26
2022-10-19T07:11:17.811Z,80.95
2022-10-19T07:13:44.213Z,80.61
2022-10-19T07:16:17.598Z,80.71
2022-10-19T07:18:48.529Z,80.40
2022-10-19T07:21:16.331Z,80.29
2022-10-19T07:23:44.369Z,80.23
2022-10-19T07:26:24.010Z,79.77
2022-10-19T07:28:51.152Z,79.56
2022-10-19T07:31:20.491Z,79.29
2022-10-19T07:33:47.994Z,78.32
2022-10-19T07:36:14.507Z,75.23
2022-10-19T07:38:41.210Z,75.18
2022-10-19T07:41:12.639Z,75.49
2022-10-19T07:43:40.199Z,75.49
2022-10-19T07:46:10.548Z,74.82
2022-10-19T07:48:36.961Z,74.14
2022-10-19T07:51:06.463Z,74.63
2022-10-19T07:53:34.283Z,74.57
2022-10-19T07:56:12.046Z,71.73
2022-10-19T07:58:39.124Z,71.65
2022-10-19T08:01:27.107Z,72.25
2022-10-19T08:04:43.315Z,72.37
2022-10-19T08:06:41.310Z,72.22
2022-10-19T08:09:07.986Z,72.02
2022-10-19T08:11:35.512Z,72.02
2022-10-19T08:14:03.108Z,71.26
2022-10-19T08:16:37.319Z,71.53
2022-10-19T08:19:09.705Z,71.12
2022-10-19T08:21:42.643Z,70.03
2022-10-19T08:24:10.823Z,69.58
2022-10-19T08:26:39.038Z,69.66
2022-10-19T08:29:12.887Z,68.75
2022-10-19T08:31:40.026Z,67.61
2022-10-19T08:34:06.938Z,67.66
2022-10-19T08:36:35.703Z,66.83
2022-10-19T08:39:04.669Z,66.26
2022-10-19T08:41:37.501Z,65.82
2022-10-19T08:44:10.342Z,65.82
2022-10-19T08:46:45.734Z,65.79
2022-10-19T08:49:19.044Z,65.49
2022-10-19T08:51:51.475Z,65.09
2022-10-19T08:54:18.329Z,65.08
2022-10-19T08:56:51.728Z,65.02
2022-10-19T08:59:21.444Z,64.55
2022-10-19T09:01:54.394Z,63.99
2022-10-19T09:04:38.100Z,63.48
2022-10-19T09:07:24.782Z,62.60
2022-10-19T09:09:54.491Z,62.38
2022-10-19T09:12:33.846Z,62.29
2022-10-19T09:15:07.581Z,62.32
2022-10-19T09:17:34.886Z,60.77
2022-10-19T09:20:14.789Z,59.73
2022-10-19T09:22:42.565Z,61.01
2022-10-19T09:25:20.560Z,60.49
2022-10-19T09:27:49.913Z,59.67
2022-10-19T09:30:20.784Z,60.07
2022-10-19T09:32:50.078Z,61.05
2022-10-19T09:35:34.104Z,61.16
2022-10-19T09:38:01.046Z,59.84
2022-10-19T09:40:30.361Z,59.78
2022-10-19T09:42:58.882Z,60.74
2022-10-19T09:46:13.885Z,60.46
2022-10-19T09:48:52.850Z,60.78
2022-10-19T09:51:20.680Z,60.31
2022-10-19T09:53:53.796Z,60.45
2022-10-19T09:56:25.765Z,60.25
2022-10-19T09:58:55.005Z,60.07
2022-10-19T10:01:41.555Z,59.95
2022-10-19T10:04:15.149Z,59.48
2022-10-19T10:06:43.776Z,59.50
2022-10-19T10:09:18.219Z,59.04
2022-10-19T10:11:48.573Z,58.80
2022-10-19T10:14:20.967Z,58.83
2022-10-19T10:16:52.856Z,57.83
2022-10-19T10:22:04.058Z,57.71
2022-10-19T10:24:32.574Z,56.99
2022-10-19T10:27:02.356Z,57.13
2022-10-19T10:29:37.590Z,57.13
2022-10-19T10:32:19.486Z,56.52
2022-10-19T10:34:59.883Z,56.81
2022-10-19T10:37:35.639Z,57.61
2022-10-19T10:40:05.108Z,58.24
2022-10-19T10:42:42.017Z,58.05
2022-10-19T10:45:29.905Z,57.30
2022-10-19T10:47:56.784Z,55.92
2022-10-19T10:50:30.386Z,55.56
2022-10-19T10:53:02.535Z,55.56
2022-10-19T10:55:30.700Z,55.11
2022-10-19T10:58:18.415Z,53.85
2022-10-19T11:00:46.080Z,54.00
2022-10-19T11:03:29.239Z,54.26
2022-10-19T11:06:00.446Z,54.39
2022-10-19T11:08:42.219Z,53.29
2022-10-19T11:11:19.251Z,52.22
2022-10-19T11:13:52.702Z,51.43
2022-10-19T11:16:25.323Z,51.95
2022-10-19T11:19:00.641Z,52.38
2022-10-19T11:21:42.619Z,51.43
2022-10-19T11:24:18.674Z,51.03
2022-10-19T11:27:22.484Z,51.24
2022-10-19T11:30:09.722Z,50.58
2022-10-19T11:33:03.451Z,50.59
2022-10-19T11:35:49.590Z,50.40
2022-10-19T11:38:39.750Z,50.16
2022-10-19T11:41:30.953Z,49.85
2022-10-19T11:44:04.127Z,49.96
2022-10-19T11:47:01.809Z,49.91
2022-10-19T11:49:55.180Z,49.93
2022-10-19T11:52:50.765Z,50.11
2022-10-19T11:55:32.878Z,50.52
2022-10-19T11:58:20.078Z,50.16
2022-10-19T12:01:03.144Z,50.40
2022-10-19T12:03:53.717Z,50.81
2022-10-19T12:06:52.103Z,51.13
2022-10-19T12:10:00.288Z,51.12
2022-10-19T12:12:37.267Z,50.75
2022-10-19T12:15:19.432Z,49.66
2022-10-19T12:17:50.149Z,48.96
2022-10-19T12:20:46.766Z,49.86
2022-10-19T12:23:25.973Z,49.28
2022-10-19T12:25:55.606Z,49.51
2022-10-19T12:28:27.849Z,50.03
2022-10-19T12:30:55.791Z,50.06
2022-10-19T12:33:25.059Z,49.66
2022-10-19T12:35:57.791Z,50.04
2022-10-19T12:39:01.031Z,50.46
2022-10-19T12:41:44.456Z,51.28
2022-10-19T12:44:29.239Z,50.71
2022-10-19T12:47:22.552Z,51.45
2022-10-19T12:49:56.739Z,51.83
2022-10-19T12:52:39.463Z,52.36
2022-10-19T12:55:27.759Z,52.38
2022-10-19T12:58:04.133Z,52.37
2022-10-19T13:00:35.156Z,52.76
2022-10-19T13:03:16.114Z,52.79
2022-10-19T13:05:54.995Z,53.24
2022-10-19T13:08:32.887Z,52.94
2022-10-19T13:11:16.816Z,53.19
2022-10-19T13:14:04.794Z,53.88
2022-10-19T13:16:31.132Z,52.89
2022-10-19T13:19:02.657Z,53.03
2022-10-19T13:21:47.204Z,52.63
2022-10-19T13:24:35.090Z,52.56
2022-10-19T13:27:04.333Z,52.24
2022-10-19T13:29:42.767Z,51.41
2022-10-19T13:32:43.372Z,50.11
2022-10-19T13:35:28.709Z,50.16
2022-10-19T13:38:16.919Z,48.04
2022-10-19T13:40:49.521Z,44.23
2022-10-19T13:43:22.627Z,40.00
2022-10-19T13:46:14.822Z,36.71
2022-10-19T13:48:59.871Z,33.90
2022-10-19T13:51:32.720Z,32.60
2022-10-19T13:54:27.531Z,31.28
2022-10-19T13:57:04.608Z,28.52
2022-10-19T14:00:01.997Z,27.85
2022-10-19T14:02:56.878Z,28.86
2022-10-19T14:05:41.301Z,28.63
2022-10-19T14:08:41.815Z,28.28
2022-10-19T14:11:17.485Z,29.31
2022-10-19T14:13:48.316Z,30.19
2022-10-19T14:16:20.753Z,30.03
2022-10-19T14:18:56.537Z,29.18
2022-10-19T14:21:34.207Z,28.36
2022-10-19T14:24:18.701Z,27.95
2022-10-19T14:26:46.692Z,27.52
2022-10-19T14:29:13.631Z,26.65
2022-10-19T14:31:40.176Z,25.71
2022-10-19T14:34:09.455Z,26.08
2022-10-19T14:36:50.525Z,25.75
2022-10-19T14:39:30.779Z,25.03
2022-10-19T14:42:02.995Z,25.92
2022-10-19T14:44:37.421Z,26.32
2022-10-19T14:47:27.275Z,27.28
2022-10-19T14:49:56.459Z,28.50
2022-10-19T14:52:39.315Z,29.96
2022-10-19T14:55:12.756Z,31.01
2022-10-19T14:57:44.043Z,31.26
2022-10-19T15:00:22.519Z,31.68
2022-10-19T15:03:00.862Z,31.71
2022-10-19T15:05:31.132Z,31.38
2022-10-19T15:07:57.792Z,32.04
2022-10-19T15:10:31.206Z,32.05
2022-10-19T15:13:04.490Z,32.09
2022-10-19T15:15:33.748Z,32.18
2022-10-19T15:18:00.217Z,32.80
2022-10-19T15:20:31.369Z,33.63
2022-10-19T15:22:59.211Z,34.30
2022-10-19T15:25:33.947Z,35.13
2022-10-19T15:28:21.112Z,36.42
2022-10-19T15:30:59.219Z,37.80
2022-10-19T15:33:26.224Z,38.86
2022-10-19T15:35:52.889Z,39.58
2022-10-19T15:38:26.903Z,40.19
2022-10-19T15:40:59.013Z,40.70
2022-10-19T15:43:35.022Z,40.74
2022-10-19T15:46:05.740Z,40.37
2022-10-19T15:48:41.395Z,40.41
2022-10-19T15:51:32.724Z,41.10
2022-10-19T15:54:01.741Z,41.80
2022-10-19T15:56:30.960Z,42.77
2022-10-19T15:58:59.825Z,43.86
2022-10-19T16:01:30.369Z,45.18
2022-10-19T16:03:57.668Z,46.30
2022-10-19T16:06:30.585Z,47.38
2022-10-19T16:08:58.673Z,48.53
2022-10-19T16:11:28.899Z,49.81
2022-10-19T16:13:55.355Z,51.06
2022-10-19T16:16:30.937Z,52.06
2022-10-19T16:18:58.631Z,53.21
2022-10-19T16:21:29.238Z,54.11
2022-10-19T16:23:56.207Z,55.28
2022-10-19T16:26:23.300Z,55.87
2022-10-19T16:28:50.011Z,56.87
2022-10-19T16:31:17.404Z,57.63
2022-10-19T16:33:44.427Z,58.53
2022-10-19T16:36:11.334Z,59.35
2022-10-19T16:38:37.755Z,60.00
2022-10-19T16:41:07.355Z,60.58
2022-10-19T16:43:35.040Z,61.24
2022-10-19T16:46:02.023Z,61.96
2022-10-19T16:48:28.530Z,62.49
2022-10-19T16:51:07.265Z,63.01
2022-10-19T16:53:35.007Z,63.72
2022-10-19T16:56:13.052Z,64.30
2022-10-19T16:58:40.391Z,64.99
2022-10-19T17:01:12.362Z,65.58
2022-10-19T17:03:39.207Z,65.77
2022-10-19T17:06:09.142Z,66.15
2022-10-19T17:09:02.386Z,66.51
2022-10-19T17:11:28.214Z,67.02
2022-10-19T17:14:07.402Z,67.56
2022-10-19T17:16:36.259Z,68.31
2022-10-19T17:19:04.291Z,69.30
2022-10-19T17:21:33.975Z,70.61
2022-10-19T17:24:02.674Z,70.93
2022-10-19T17:26:32.696Z,71.61
2022-10-19T17:29:00.176Z,72.20
2022-10-19T17:31:28.112Z,72.75
2022-10-19T17:33:55.110Z,72.66
2022-10-19T17:36:29.487Z,72.80
2022-10-19T17:39:02.291Z,73.05
2022-10-19T17:41:29.460Z,73.20
2022-10-19T17:43:56.851Z,73.08
2022-10-19T17:46:27.201Z,73.50
2022-10-19T17:48:53.766Z,73.67
2022-10-19T17:51:27.183Z,73.58
2022-10-19T17:53:58.225Z,73.82
2022-10-19T17:56:26.103Z,74.29
2022-10-19T17:58:53.014Z,74.45
2022-10-19T18:01:22.597Z,74.98
2022-10-19T18:03:50.644Z,75.16
2022-10-19T18:06:18.715Z,75.20
2022-10-19T18:08:48.024Z,75.88
2022-10-19T18:11:24.399Z,76.17
2022-10-19T18:13:52.195Z,76.62
2022-10-19T18:16:22.047Z,77.03
2022-10-19T18:18:51.804Z,77.27
2022-10-19T18:21:21.595Z,77.46
2022-10-19T18:23:48.899Z,77.35
2022-10-19T18:26:21.850Z,77.68
2022-10-19T18:28:50.028Z,77.11
2022-10-19T18:31:22.409Z,77.46
2022-10-19T18:33:55.073Z,77.19
2022-10-19T18:36:21.740Z,77.45
2022-10-19T18:38:57.584Z,77.77
2022-10-19T18:41:24.833Z,77.28
2022-10-19T18:43:56.777Z,77.33
2022-10-19T18:46:25.431Z,77.11
2022-10-19T18:48:55.667Z,76.99
2022-10-19T18:51:23.879Z,76.57
2022-10-19T18:53:50.538Z,76.90
2022-10-19T18:56:19.445Z,77.12
2022-10-19T18:58:46.710Z,77.28
2022-10-19T19:01:18.787Z,77.42
2022-10-19T19:03:49.626Z,77.76
2022-10-19T19:06:32.814Z,77.74
2022-10-19T19:09:01.047Z,77.88
2022-10-19T19:11:33.046Z,78.18
2022-10-19T19:14:06.198Z,78.80
2022-10-19T19:16:35.142Z,78.89
2022-10-19T19:19:02.092Z,79.38
2022-10-19T19:21:30.634Z,79.57
2022-10-19T19:24:01.339Z,79.57
2022-10-19T19:26:32.076Z,79.75
2022-10-19T19:28:59.073Z,79.78
2022-10-19T19:31:26.072Z,79.80
2022-10-19T19:33:52.776Z,79.91
2022-10-19T19:36:20.793Z,79.79
2022-10-19T19:38:50.557Z,79.62
2022-10-19T19:41:17.467Z,79.50
2022-10-19T19:43:44.196Z,79.35
2022-10-19T19:46:13.982Z,79.48
2022-10-19T19:48:42.624Z,79.23
2022-10-19T19:51:14.284Z,79.23
2022-10-19T19:53:40.783Z,79.35
2022-10-19T19:56:09.544Z,79.50
2022-10-19T19:58:36.331Z,79.85
2022-10-19T20:01:32.478Z,79.99
2022-10-19T20:04:00.104Z,79.76
2022-10-19T20:06:26.895Z,79.99
2022-10-19T20:08:57.407Z,80.18
2022-10-19T20:11:26.716Z,80.30
2022-10-19T20:13:53.171Z,80.17
2022-10-19T20:16:29.022Z,80.75
2022-10-19T20:19:01.350Z,80.79
2022-10-19T20:21:27.857Z,81.27
2022-10-19T20:23:54.338Z,81.57
2022-10-19T20:26:23.499Z,81.54
2022-10-19T20:28:50.715Z,81.60
2022-10-19T20:31:17.767Z,81.45
2022-10-19T20:33:44.745Z,81.13
2022-10-19T20:36:32.830Z,80.94
2022-10-19T20:38:59.334Z,80.95
2022-10-19T20:41:28.316Z,80.77
2022-10-19T20:43:55.822Z,80.67
2022-10-19T20:46:27.462Z,80.75
2022-10-19T20:48:56.239Z,80.61
2022-10-19T20:51:30.671Z,80.99
2022-10-19T20:54:00.823Z,81.95
2022-10-19T20:56:30.456Z,82.02
2022-10-19T20:59:18.124Z,82.71
2022-10-19T21:01:45.962Z,82.43
2022-10-19T21:04:14.285Z,82.23
2022-10-19T21:06:46.824Z,82.09
2022-10-19T21:09:15.916Z,81.91
2022-10-19T21:11:44.279Z,81.81
2022-10-19T21:14:13.545Z,81.52
2022-10-19T21:16:40.210Z,81.59
2022-10-19T21:19:11.003Z,81.69
2022-10-19T21:21:40.908Z,81.91
2022-10-19T21:24:11.550Z,81.96
2022-10-19T21:26:38.826Z,82.17
2022-10-19T21:29:09.582Z,81.86
2022-10-19T21:31:38.505Z,82.00
2022-10-19T21:34:08.234Z,82.10
2022-10-19T21:36:34.736Z,82.18
2022-10-19T21:39:01.435Z,82.26
2022-10-19T21:41:28.014Z,82.31
2022-10-19T21:43:54.908Z,82.43
2022-10-19T21:46:22.733Z,82.54
2022-10-19T21:48:50.615Z,82.44
2022-10-19T21:51:20.654Z,82.33
2022-10-19T21:53:47.189Z,82.58
2022-10-19T21:56:16.040Z,82.75
2022-10-19T21:58:51.099Z,82.64
2022-10-19T22:01:19.623Z,82.88
2022-10-19T22:03:46.657Z,83.01
2022-10-19T22:06:13.672Z,83.07
2022-10-19T22:08:44.535Z,83.11
2022-10-19T22:11:13.862Z,82.98
2022-10-19T22:13:40.785Z,83.28
2022-10-19T22:16:16.832Z,83.51
2022-10-19T22:18:44.088Z,83.47
2022-10-19T22:21:16.869Z,83.36
2022-10-19T22:23:44.851Z,83.50
2022-10-19T22:26:20.926Z,83.74
2022-10-19T22:28:47.663Z,83.71
2022-10-19T22:31:14.257Z,83.83
2022-10-19T22:33:41.066Z,83.87
2022-10-19T22:36:09.347Z,84.03
2022-10-19T22:38:36.274Z,84.09
2022-10-19T22:41:03.087Z,83.85
2022-10-19T22:43:30.870Z,84.37
2022-10-19T22:45:57.412Z,84.33
2022-10-19T22:48:23.920Z,84.25
2022-10-19T22:50:54.272Z,84.29
2022-10-19T22:53:24.763Z,84.32
2022-10-19T22:55:52.109Z,84.52
2022-10-19T22:58:19.041Z,84.40
2022-10-19T23:00:45.554Z,84.58
2022-10-19T23:03:12.438Z,84.68
2022-10-19T23:05:41.705Z,84.96
2022-10-19T23:08:08.160Z,85.00
2022-10-19T23:10:34.668Z,85.23
2022-10-19T23:13:01.171Z,85.23
2022-10-19T23:15:27.770Z,85.47
2022-10-19T23:17:54.527Z,85.25
2022-10-19T23:20:21.042Z,85.49
2022-10-19T23:22:47.534Z,85.54
2022-10-19T23:25:13.983Z,85.58
2022-10-19T23:27:40.521Z,85.83
2022-10-19T23:30:07.548Z,85.82
2022-10-19T23:32:34.390Z,85.54
2022-10-19T23:35:00.867Z,85.47
2022-10-19T23:37:27.437Z,85.52
2022-10-19T23:39:53.894Z,85.49
2022-10-19T23:42:23.069Z,85.67
2022-10-19T23:44:49.508Z,85.52
2022-10-19T23:47:16.278Z,85.64
2022-10-19T23:49:42.742Z,85.94
2022-10-19T23:52:10.800Z,85.96
2022-10-19T23:54:37.519Z,85.95
2022-10-19T23:57:04.271Z,86.19
2022-10-19T23:59:30.811Z,86.02
